sensor_id;sensor_type;location;lat;lon;timestamp;pressure;altitude;pressure_sealevel;temperature;humidity
43711;BME280;29309;42.682;23.372;2023-03-08T00:00:19;94386.97;;;7.24;56.25
43711;BME280;29309;42.682;23.372;2023-03-08T00:02:45;94398.75;;;7.24;56.47
43711;BME280;29309;42.682;23.372;2023-03-08T00:05:10;94395.09;;;7.20;56.65
43711;BME280;29309;42.682;23.372;2023-03-08T00:07:35;94390.19;;;7.18;56.47
43711;BME280;29309;42.682;23.372;2023-03-08T00:10:01;94398.47;;;7.18;56.50
43711;BME280;29309;42.682;23.372;2023-03-08T00:12:27;94394.25;;;7.17;56.38
43711;BME280;29309;42.682;23.372;2023-03-08T00:14:52;94396.72;;;7.11;57.28
43711;BME280;29309;42.682;23.372;2023-03-08T00:17:18;94396.72;;;7.11;56.37
43711;BME280;29309;42.682;23.372;2023-03-08T00:19:43;94396.53;;;7.07;56.59
43711;BME280;29309;42.682;23.372;2023-03-08T00:22:09;94394.47;;;7.08;56.57
43711;BME280;29309;42.682;23.372;2023-03-08T00:24:34;94390.81;;;7.03;57.90
43711;BME280;29309;42.682;23.372;2023-03-08T00:26:59;94390.09;;;7.03;57.00
43711;BME280;29309;42.682;23.372;2023-03-08T00:29:25;94392.03;;;7.00;58.21
43711;BME280;29309;42.682;23.372;2023-03-08T00:31:50;94394.59;;;6.96;58.48
43711;BME280;29309;42.682;23.372;2023-03-08T00:34:15;94397.25;;;6.94;57.57
43711;BME280;29309;42.682;23.372;2023-03-08T00:36:41;94393.78;;;6.93;57.92
43711;BME280;29309;42.682;23.372;2023-03-08T00:39:06;94396.53;;;6.93;57.35
43711;BME280;29309;42.682;23.372;2023-03-08T00:41:31;94391.84;;;6.96;58.08
43711;BME280;29309;42.682;23.372;2023-03-08T00:43:57;94391.84;;;6.96;57.15
43711;BME280;29309;42.682;23.372;2023-03-08T00:46:23;94386.09;;;6.92;58.84
43711;BME280;29309;42.682;23.372;2023-03-08T00:48:48;94377.75;;;6.90;58.50
43711;BME280;29309;42.682;23.372;2023-03-08T00:51:14;94389.91;;;6.85;58.74
43711;BME280;29309;42.682;23.372;2023-03-08T00:53:40;94376.63;;;6.81;58.08
43711;BME280;29309;42.682;23.372;2023-03-08T00:56:05;94383.16;;;6.88;58.55
43711;BME280;29309;42.682;23.372;2023-03-08T00:58:31;94381.41;;;6.81;58.75
43711;BME280;29309;42.682;23.372;2023-03-08T01:00:56;94390.81;;;6.76;59.21
43711;BME280;29309;42.682;23.372;2023-03-08T01:03:22;94387.22;;;6.73;59.30
43711;BME280;29309;42.682;23.372;2023-03-08T01:05:48;94392.03;;;6.73;58.83
43711;BME280;29309;42.682;23.372;2023-03-08T01:08:14;94386.50;;;6.73;58.82
43711;BME280;29309;42.682;23.372;2023-03-08T01:10:45;94393.47;;;6.74;59.10
43711;BME280;29309;42.682;23.372;2023-03-08T01:13:11;94395.41;;;6.71;59.52
43711;BME280;29309;42.682;23.372;2023-03-08T01:15:36;94395.41;;;6.71;58.69
43711;BME280;29309;42.682;23.372;2023-03-08T01:18:02;94398.91;;;6.72;59.41
43711;BME280;29309;42.682;23.372;2023-03-08T01:20:28;94388.38;;;6.68;59.77
43711;BME280;29309;42.682;23.372;2023-03-08T01:22:53;94394.78;;;6.59;59.50
43711;BME280;29309;42.682;23.372;2023-03-08T01:25:18;94380.69;;;6.53;59.91
43711;BME280;29309;42.682;23.372;2023-03-08T01:27:44;94388.03;;;6.49;60.32
43711;BME280;29309;42.682;23.372;2023-03-08T01:30:09;94394.19;;;6.47;60.06
43711;BME280;29309;42.682;23.372;2023-03-08T01:32:34;94393.69;;;6.51;59.96
43711;BME280;29309;42.682;23.372;2023-03-08T01:35:00;94395.38;;;6.30;60.17
43711;BME280;29309;42.682;23.372;2023-03-08T01:37:29;94404.41;;;6.19;62.10
43711;BME280;29309;42.682;23.372;2023-03-08T01:39:54;94398.19;;;6.19;61.35
43711;BME280;29309;42.682;23.372;2023-03-08T01:42:19;94405.66;;;6.16;60.78
43711;BME280;29309;42.682;23.372;2023-03-08T01:45:00;94407.09;;;6.17;61.80
43711;BME280;29309;42.682;23.372;2023-03-08T01:47:26;94412.59;;;6.17;61.19
43711;BME280;29309;42.682;23.372;2023-03-08T01:49:52;94408.41;;;6.16;60.79
43711;BME280;29309;42.682;23.372;2023-03-08T01:52:23;94413.91;;;6.16;61.16
43711;BME280;29309;42.682;23.372;2023-03-08T01:54:57;94401.78;;;6.21;60.97
43711;BME280;29309;42.682;23.372;2023-03-08T01:57:34;94388.06;;;6.10;60.99
43711;BME280;29309;42.682;23.372;2023-03-08T02:00:07;94411.09;;;5.89;62.45
43711;BME280;29309;42.682;23.372;2023-03-08T02:02:41;94407.13;;;5.92;63.15
43711;BME280;29309;42.682;23.372;2023-03-08T02:05:07;94385.78;;;5.92;62.55
43711;BME280;29309;42.682;23.372;2023-03-08T02:07:33;94406.03;;;5.85;62.58
43711;BME280;29309;42.682;23.372;2023-03-08T02:09:59;94405.47;;;5.75;63.19
43711;BME280;29309;42.682;23.372;2023-03-08T02:12:24;94406.63;;;5.84;63.17
43711;BME280;29309;42.682;23.372;2023-03-08T02:14:50;94413.47;;;5.83;63.47
43711;BME280;29309;42.682;23.372;2023-03-08T02:17:15;94405.69;;;5.79;63.38
43711;BME280;29309;42.682;23.372;2023-03-08T02:22:10;94408.56;;;5.81;63.50
43711;BME280;29309;42.682;23.372;2023-03-08T02:24:36;94406.63;;;5.84;63.08
43711;BME280;29309;42.682;23.372;2023-03-08T02:27:06;94419.56;;;5.93;62.67
43711;BME280;29309;42.682;23.372;2023-03-08T02:29:32;94395.69;;;5.98;62.80
43711;BME280;29309;42.682;23.372;2023-03-08T02:31:57;94387.31;;;5.96;62.32
43711;BME280;29309;42.682;23.372;2023-03-08T02:34:22;94408.56;;;5.93;62.75
43711;BME280;29309;42.682;23.372;2023-03-08T02:36:47;94419.22;;;5.87;62.79
43711;BME280;29309;42.682;23.372;2023-03-08T02:39:13;94398.72;;;5.90;63.43
43711;BME280;29309;42.682;23.372;2023-03-08T02:41:38;94406.78;;;5.86;63.13
43711;BME280;29309;42.682;23.372;2023-03-08T02:44:03;94422.94;;;5.80;63.55
43711;BME280;29309;42.682;23.372;2023-03-08T02:46:29;94424.25;;;5.79;63.75
43711;BME280;29309;42.682;23.372;2023-03-08T02:48:54;94427.84;;;5.81;63.95
43711;BME280;29309;42.682;23.372;2023-03-08T02:51:19;94416.59;;;5.89;63.92
43711;BME280;29309;42.682;23.372;2023-03-08T02:53:44;94435.88;;;5.89;63.61
43711;BME280;29309;42.682;23.372;2023-03-08T02:56:10;94442.34;;;5.82;64.29
43711;BME280;29309;42.682;23.372;2023-03-08T02:58:35;94419.22;;;5.87;64.28
43711;BME280;29309;42.682;23.372;2023-03-08T03:01:00;94414.44;;;5.76;64.78
43711;BME280;29309;42.682;23.372;2023-03-08T03:03:25;94438.69;;;5.66;64.70
43711;BME280;29309;42.682;23.372;2023-03-08T03:05:51;94421.56;;;5.67;64.88
43711;BME280;29309;42.682;23.372;2023-03-08T03:08:16;94421.44;;;5.65;65.75
43711;BME280;29309;42.682;23.372;2023-03-08T03:10:41;94430.56;;;5.68;64.96
43711;BME280;29309;42.682;23.372;2023-03-08T03:13:07;94436.84;;;5.45;66.18
43711;BME280;29309;42.682;23.372;2023-03-08T03:15:32;94436.59;;;5.53;66.43
43711;BME280;29309;42.682;23.372;2023-03-08T03:17:58;94441.22;;;5.62;66.05
43711;BME280;29309;42.682;23.372;2023-03-08T03:20:23;94431.25;;;5.68;66.06
43711;BME280;29309;42.682;23.372;2023-03-08T03:22:49;94449.81;;;5.68;65.97
43711;BME280;29309;42.682;23.372;2023-03-08T03:25:14;94431.88;;;5.67;66.41
43711;BME280;29309;42.682;23.372;2023-03-08T03:27:39;94416.88;;;5.70;66.37
43711;BME280;29309;42.682;23.372;2023-03-08T03:30:05;94448.63;;;5.71;66.43
43711;BME280;29309;42.682;23.372;2023-03-08T03:32:31;94435.16;;;5.77;66.59
43711;BME280;29309;42.682;23.372;2023-03-08T03:34:56;94433.72;;;5.76;66.01
43711;BME280;29309;42.682;23.372;2023-03-08T03:37:21;94458.09;;;5.68;66.69
43711;BME280;29309;42.682;23.372;2023-03-08T03:39:47;94463.09;;;5.71;66.54
43711;BME280;29309;42.682;23.372;2023-03-08T03:42:12;94434.84;;;5.71;66.24
43711;BME280;29309;42.682;23.372;2023-03-08T03:44:37;94473.88;;;5.67;66.36
43711;BME280;29309;42.682;23.372;2023-03-08T03:47:03;94446.84;;;5.64;67.30
43711;BME280;29309;42.682;23.372;2023-03-08T03:49:28;94464.22;;;5.55;67.92
43711;BME280;29309;42.682;23.372;2023-03-08T03:51:53;94460.63;;;5.64;67.75
43711;BME280;29309;42.682;23.372;2023-03-08T03:54:19;94466.84;;;5.64;67.29
43711;BME280;29309;42.682;23.372;2023-03-08T03:56:44;94474.38;;;5.64;67.42
43711;BME280;29309;42.682;23.372;2023-03-08T03:59:09;94461.44;;;5.66;67.23
43711;BME280;29309;42.682;23.372;2023-03-08T04:01:35;94474.59;;;5.68;67.57
43711;BME280;29309;42.682;23.372;2023-03-08T04:04:00;94457.38;;;5.67;67.24
43711;BME280;29309;42.682;23.372;2023-03-08T04:06:27;94462.66;;;5.63;67.54
43711;BME280;29309;42.682;23.372;2023-03-08T04:08:53;94464.53;;;5.61;67.61
43711;BME280;29309;42.682;23.372;2023-03-08T04:11:20;94462.56;;;5.50;69.03
43711;BME280;29309;42.682;23.372;2023-03-08T04:13:46;94465.53;;;5.54;68.55
43711;BME280;29309;42.682;23.372;2023-03-08T04:16:18;94471.75;;;5.54;68.45
43711;BME280;29309;42.682;23.372;2023-03-08T04:18:44;94469.22;;;5.58;67.97
43711;BME280;29309;42.682;23.372;2023-03-08T04:21:10;94468.28;;;5.54;68.25
43711;BME280;29309;42.682;23.372;2023-03-08T04:23:35;94470.34;;;5.53;68.12
43711;BME280;29309;42.682;23.372;2023-03-08T04:26:01;94481.38;;;5.41;68.11
43711;BME280;29309;42.682;23.372;2023-03-08T04:28:26;94467.00;;;5.43;68.22
43711;BME280;29309;42.682;23.372;2023-03-08T04:30:52;94475.88;;;5.41;68.57
43711;BME280;29309;42.682;23.372;2023-03-08T04:33:19;94484.13;;;5.41;68.54
43711;BME280;29309;42.682;23.372;2023-03-08T04:35:44;94478.63;;;5.41;68.73
43711;BME280;29309;42.682;23.372;2023-03-08T04:38:10;94474.56;;;5.42;67.91
43711;BME280;29309;42.682;23.372;2023-03-08T04:40:37;94473.72;;;5.40;68.45
43711;BME280;29309;42.682;23.372;2023-03-08T04:43:22;94463.41;;;5.40;68.95
43711;BME280;29309;42.682;23.372;2023-03-08T04:45:48;94459.22;;;5.39;69.24
43711;BME280;29309;42.682;23.372;2023-03-08T04:48:13;94457.19;;;5.40;69.16
43711;BME280;29309;42.682;23.372;2023-03-08T04:50:38;94463.41;;;5.40;68.81
43711;BME280;29309;42.682;23.372;2023-03-08T04:53:04;94468.34;;;5.42;69.00
43711;BME280;29309;42.682;23.372;2023-03-08T04:55:29;94470.97;;;5.40;68.90
43711;BME280;29309;42.682;23.372;2023-03-08T04:57:54;94476.34;;;5.38;68.86
43711;BME280;29309;42.682;23.372;2023-03-08T05:00:20;94482.44;;;5.36;68.69
43711;BME280;29309;42.682;23.372;2023-03-08T05:02:45;94484.88;;;5.30;69.05
43711;BME280;29309;42.682;23.372;2023-03-08T05:05:10;94495.41;;;5.22;68.50
43711;BME280;29309;42.682;23.372;2023-03-08T05:07:35;94484.28;;;5.20;67.95
43711;BME280;29309;42.682;23.372;2023-03-08T05:10:01;94495.06;;;5.16;66.92
43711;BME280;29309;42.682;23.372;2023-03-08T05:12:26;94496.84;;;5.12;66.34
43711;BME280;29309;42.682;23.372;2023-03-08T05:14:51;94503.91;;;5.03;68.34
43711;BME280;29309;42.682;23.372;2023-03-08T05:17:16;94501.53;;;4.97;68.32
43711;BME280;29309;42.682;23.372;2023-03-08T05:19:42;94509.06;;;4.97;67.74
43711;BME280;29309;42.682;23.372;2023-03-08T05:22:07;94506.44;;;4.99;67.20
43711;BME280;29309;42.682;23.372;2023-03-08T05:24:32;94510.97;;;5.06;67.43
43711;BME280;29309;42.682;23.372;2023-03-08T05:26:58;94513.25;;;5.10;67.24
43711;BME280;29309;42.682;23.372;2023-03-08T05:29:23;94519.44;;;5.10;67.03
43711;BME280;29309;42.682;23.372;2023-03-08T05:31:49;94535.94;;;5.10;66.88
43711;BME280;29309;42.682;23.372;2023-03-08T05:34:14;94536.66;;;5.11;66.63
43711;BME280;29309;42.682;23.372;2023-03-08T05:36:39;94546.59;;;5.16;66.58
43711;BME280;29309;42.682;23.372;2023-03-08T05:39:06;94543.38;;;5.19;66.58
43711;BME280;29309;42.682;23.372;2023-03-08T05:41:32;94542.31;;;5.24;66.32
43711;BME280;29309;42.682;23.372;2023-03-08T05:43:58;94541.69;;;5.26;66.10
43711;BME280;29309;42.682;23.372;2023-03-08T05:46:24;94545.41;;;5.30;65.94
43711;BME280;29309;42.682;23.372;2023-03-08T05:48:49;94550.44;;;5.34;66.39
43711;BME280;29309;42.682;23.372;2023-03-08T05:51:15;94547.19;;;5.37;66.26
43711;BME280;29309;42.682;23.372;2023-03-08T05:53:40;94558.69;;;5.34;66.31
43711;BME280;29309;42.682;23.372;2023-03-08T05:58:37;94558.44;;;5.41;65.88
43711;BME280;29309;42.682;23.372;2023-03-08T06:01:13;94560.22;;;5.49;65.65
43711;BME280;29309;42.682;23.372;2023-03-08T06:03:41;94568.09;;;5.66;65.86
43711;BME280;29309;42.682;23.372;2023-03-08T06:06:06;94570.94;;;5.91;65.75
43711;BME280;29309;42.682;23.372;2023-03-08T06:08:31;94571.13;;;6.18;64.01
43711;BME280;29309;42.682;23.372;2023-03-08T06:10:57;94573.25;;;6.45;63.61
43711;BME280;29309;42.682;23.372;2023-03-08T06:13:22;94578.13;;;6.83;63.68
43711;BME280;29309;42.682;23.372;2023-03-08T06:15:51;94576.75;;;7.23;62.09
43711;BME280;29309;42.682;23.372;2023-03-08T06:18:17;94580.38;;;7.67;60.18
43711;BME280;29309;42.682;23.372;2023-03-08T06:20:42;94580.41;;;8.10;58.47
43711;BME280;29309;42.682;23.372;2023-03-08T06:23:07;94593.91;;;8.31;57.74
43711;BME280;29309;42.682;23.372;2023-03-08T06:25:33;94590.44;;;8.60;56.90
43711;BME280;29309;42.682;23.372;2023-03-08T06:27:58;94596.03;;;8.91;55.97
43711;BME280;29309;42.682;23.372;2023-03-08T06:30:23;94592.25;;;9.29;54.71
43711;BME280;29309;42.682;23.372;2023-03-08T06:32:48;94599.47;;;9.68;53.73
43711;BME280;29309;42.682;23.372;2023-03-08T06:35:14;94599.50;;;10.01;53.15
43711;BME280;29309;42.682;23.372;2023-03-08T06:37:39;94595.59;;;10.24;51.14
43711;BME280;29309;42.682;23.372;2023-03-08T06:40:04;94601.53;;;10.50;50.34
43711;BME280;29309;42.682;23.372;2023-03-08T06:42:33;94593.78;;;10.81;49.53
43711;BME280;29309;42.682;23.372;2023-03-08T06:44:58;94599.22;;;10.97;49.13
43711;BME280;29309;42.682;23.372;2023-03-08T06:47:23;94600.53;;;11.31;48.19
43711;BME280;29309;42.682;23.372;2023-03-08T06:49:48;94605.50;;;11.72;47.82
43711;BME280;29309;42.682;23.372;2023-03-08T06:52:14;94616.91;;;12.20;47.02
43711;BME280;29309;42.682;23.372;2023-03-08T06:54:40;94617.22;;;12.50;45.51
43711;BME280;29309;42.682;23.372;2023-03-08T06:57:05;94613.78;;;12.73;45.24
43711;BME280;29309;42.682;23.372;2023-03-08T06:59:30;94613.59;;;13.10;44.10
43711;BME280;29309;42.682;23.372;2023-03-08T07:01:55;94620.13;;;13.19;43.92
43711;BME280;29309;42.682;23.372;2023-03-08T07:04:21;94626.47;;;13.21;43.33
43711;BME280;29309;42.682;23.372;2023-03-08T07:06:46;94635.47;;;13.42;43.18
43711;BME280;29309;42.682;23.372;2023-03-08T07:09:11;94631.81;;;13.61;42.77
43711;BME280;29309;42.682;23.372;2023-03-08T07:11:37;94633.50;;;13.70;43.09
43711;BME280;29309;42.682;23.372;2023-03-08T07:14:03;94640.22;;;14.10;42.41
43711;BME280;29309;42.682;23.372;2023-03-08T07:16:28;94635.44;;;14.15;41.83
43711;BME280;29309;42.682;23.372;2023-03-08T07:18:53;94636.25;;;14.19;42.48
43711;BME280;29309;42.682;23.372;2023-03-08T07:21:20;94643.66;;;14.35;42.08
43711;BME280;29309;42.682;23.372;2023-03-08T07:23:46;94640.28;;;14.66;42.89
43711;BME280;29309;42.682;23.372;2023-03-08T07:26:11;94642.31;;;14.91;41.31
43711;BME280;29309;42.682;23.372;2023-03-08T07:28:36;94637.75;;;15.06;40.70
43711;BME280;29309;42.682;23.372;2023-03-08T07:31:01;94634.00;;;14.95;40.17
43711;BME280;29309;42.682;23.372;2023-03-08T07:33:27;94637.44;;;14.64;40.45
43711;BME280;29309;42.682;23.372;2023-03-08T07:35:52;94633.25;;;14.37;43.23
43711;BME280;29309;42.682;23.372;2023-03-08T07:38:17;94638.44;;;14.23;41.80
43711;BME280;29309;42.682;23.372;2023-03-08T07:40:43;94640.13;;;14.08;41.94
43711;BME280;29309;42.682;23.372;2023-03-08T07:43:08;94633.41;;;13.92;43.98
43711;BME280;29309;42.682;23.372;2023-03-08T07:45:34;94639.03;;;13.94;43.32
43711;BME280;29309;42.682;23.372;2023-03-08T07:48:00;94644.84;;;14.02;42.64
43711;BME280;29309;42.682;23.372;2023-03-08T07:50:26;94639.88;;;13.98;45.53
43711;BME280;29309;42.682;23.372;2023-03-08T07:52:51;94636.19;;;13.92;44.30
43711;BME280;29309;42.682;23.372;2023-03-08T07:55:16;94629.41;;;13.99;44.25
43711;BME280;29309;42.682;23.372;2023-03-08T07:57:42;94644.13;;;14.01;42.70
43711;BME280;29309;42.682;23.372;2023-03-08T08:00:07;94644.00;;;13.97;43.20
43711;BME280;29309;42.682;23.372;2023-03-08T08:02:33;94640.94;;;13.87;42.72
43711;BME280;29309;42.682;23.372;2023-03-08T08:04:58;94642.69;;;13.74;43.10
43711;BME280;29309;42.682;23.372;2023-03-08T08:07:24;94642.22;;;13.58;43.02
43711;BME280;29309;42.682;23.372;2023-03-08T08:09:49;94645.06;;;13.37;44.03
43711;BME280;29309;42.682;23.372;2023-03-08T08:12:14;94647.09;;;13.12;44.23
43711;BME280;29309;42.682;23.372;2023-03-08T08:14:40;94649.78;;;12.89;45.73
43711;BME280;29309;42.682;23.372;2023-03-08T08:17:05;94644.09;;;12.84;45.30
43711;BME280;29309;42.682;23.372;2023-03-08T08:19:30;94650.13;;;12.77;45.29
43711;BME280;29309;42.682;23.372;2023-03-08T08:21:56;94657.81;;;12.57;46.82
43711;BME280;29309;42.682;23.372;2023-03-08T08:24:21;94645.97;;;12.56;46.64
43711;BME280;29309;42.682;23.372;2023-03-08T08:26:46;94644.59;;;12.57;46.00
43711;BME280;29309;42.682;23.372;2023-03-08T08:29:12;94646.94;;;12.65;46.69
43711;BME280;29309;42.682;23.372;2023-03-08T08:31:37;94656.94;;;12.94;46.57
43711;BME280;29309;42.682;23.372;2023-03-08T08:34:02;94647.81;;;13.13;48.09
43711;BME280;29309;42.682;23.372;2023-03-08T08:36:28;94657.94;;;13.48;45.79
43711;BME280;29309;42.682;23.372;2023-03-08T08:38:53;94657.34;;;13.75;44.27
43711;BME280;29309;42.682;23.372;2023-03-08T08:41:19;94658.91;;;14.06;43.69
43711;BME280;29309;42.682;23.372;2023-03-08T08:43:45;94654.44;;;14.20;43.54
43711;BME280;29309;42.682;23.372;2023-03-08T08:46:11;94650.84;;;14.42;42.53
43711;BME280;29309;42.682;23.372;2023-03-08T08:48:36;94642.81;;;14.84;42.00
43711;BME280;29309;42.682;23.372;2023-03-08T08:51:03;94646.75;;;15.32;40.78
43711;BME280;29309;42.682;23.372;2023-03-08T08:53:28;94643.56;;;15.75;40.84
43711;BME280;29309;42.682;23.372;2023-03-08T08:55:53;94641.31;;;16.04;39.25
43711;BME280;29309;42.682;23.372;2023-03-08T08:58:19;94645.47;;;16.01;39.26
43711;BME280;29309;42.682;23.372;2023-03-08T09:00:46;94645.00;;;15.79;39.42
43711;BME280;29309;42.682;23.372;2023-03-08T09:03:11;94645.44;;;15.65;39.62
43711;BME280;29309;42.682;23.372;2023-03-08T09:05:38;94647.63;;;15.70;39.98
43711;BME280;29309;42.682;23.372;2023-03-08T09:08:03;94642.75;;;15.71;39.88
43711;BME280;29309;42.682;23.372;2023-03-08T09:10:29;94640.25;;;15.51;40.44
43711;BME280;29309;42.682;23.372;2023-03-08T09:12:55;94644.69;;;15.33;39.99
43711;BME280;29309;42.682;23.372;2023-03-08T09:15:20;94642.75;;;15.09;40.84
43711;BME280;29309;42.682;23.372;2023-03-08T09:17:47;94643.13;;;14.96;41.72
43711;BME280;29309;42.682;23.372;2023-03-08T09:20:13;94637.50;;;14.94;41.17
43711;BME280;29309;42.682;23.372;2023-03-08T09:22:39;94634.31;;;14.79;41.43
43711;BME280;29309;42.682;23.372;2023-03-08T09:25:04;94635.25;;;14.60;41.40
43711;BME280;29309;42.682;23.372;2023-03-08T09:27:30;94625.19;;;14.49;42.06
43711;BME280;29309;42.682;23.372;2023-03-08T09:29:55;94629.72;;;14.35;42.88
43711;BME280;29309;42.682;23.372;2023-03-08T09:32:20;94632.81;;;14.21;43.96
43711;BME280;29309;42.682;23.372;2023-03-08T09:34:45;94631.38;;;14.20;44.14
43711;BME280;29309;42.682;23.372;2023-03-08T09:37:11;94620.06;;;14.40;43.02
43711;BME280;29309;42.682;23.372;2023-03-08T09:39:36;94623.13;;;14.50;42.50
43711;BME280;29309;42.682;23.372;2023-03-08T09:42:03;94624.75;;;14.59;42.76
43711;BME280;29309;42.682;23.372;2023-03-08T09:48:23;94617.22;;;14.93;42.06
43711;BME280;29309;42.682;23.372;2023-03-08T09:50:30;94614.25;;;15.17;41.32
43711;BME280;29309;42.682;23.372;2023-03-08T09:53:15;94614.34;;;15.51;40.50
43711;BME280;29309;42.682;23.372;2023-03-08T09:58:31;94614.31;;;16.18;39.13
43711;BME280;29309;42.682;23.372;2023-03-08T10:01:04;94601.75;;;16.21;38.98
43711;BME280;29309;42.682;23.372;2023-03-08T10:06:19;94599.41;;;15.72;39.46
43711;BME280;29309;42.682;23.372;2023-03-08T10:11:23;94590.19;;;15.65;42.33
43711;BME280;29309;42.682;23.372;2023-03-08T10:13:53;94596.53;;;15.68;39.79
43711;BME280;29309;42.682;23.372;2023-03-08T10:16:33;94591.28;;;15.86;39.60
43711;BME280;29309;42.682;23.372;2023-03-08T10:19:09;94590.91;;;16.02;38.88
43711;BME280;29309;42.682;23.372;2023-03-08T10:21:39;94584.75;;;16.09;39.08
43711;BME280;29309;42.682;23.372;2023-03-08T10:26:51;94587.03;;;16.21;38.66
43711;BME280;29309;42.682;23.372;2023-03-08T10:29:16;94590.47;;;16.15;38.06
43711;BME280;29309;42.682;23.372;2023-03-08T10:31:42;94585.78;;;16.28;38.35
43711;BME280;29309;42.682;23.372;2023-03-08T10:34:12;94590.38;;;16.49;37.93
43711;BME280;29309;42.682;23.372;2023-03-08T10:39:12;94586.56;;;16.70;37.45
43711;BME280;29309;42.682;23.372;2023-03-08T10:41:48;94576.97;;;16.86;37.45
43711;BME280;29309;42.682;23.372;2023-03-08T10:49:42;94570.78;;;17.39;36.34
43711;BME280;29309;42.682;23.372;2023-03-08T10:52:22;94565.16;;;17.39;36.76
43711;BME280;29309;42.682;23.372;2023-03-08T10:54:59;94561.78;;;17.51;36.52
43711;BME280;29309;42.682;23.372;2023-03-08T10:57:24;94560.34;;;17.46;35.97
43711;BME280;29309;42.682;23.372;2023-03-08T10:59:50;94564.47;;;17.41;38.61
43711;BME280;29309;42.682;23.372;2023-03-08T11:02:16;94565.91;;;17.44;36.47
43711;BME280;29309;42.682;23.372;2023-03-08T11:04:55;94558.91;;;17.43;36.21
43711;BME280;29309;42.682;23.372;2023-03-08T11:07:28;94560.75;;;17.24;36.16
43711;BME280;29309;42.682;23.372;2023-03-08T11:12:37;94543.97;;;16.80;37.15
43711;BME280;29309;42.682;23.372;2023-03-08T11:15:11;94529.50;;;16.54;38.29
43711;BME280;29309;42.682;23.372;2023-03-08T11:17:36;94530.72;;;16.43;38.02
43711;BME280;29309;42.682;23.372;2023-03-08T11:27:59;94514.47;;;15.95;38.76
43711;BME280;29309;42.682;23.372;2023-03-08T11:38:24;94481.25;;;16.17;40.38
43711;BME280;29309;42.682;23.372;2023-03-08T11:40:53;94488.09;;;16.48;38.29
43711;BME280;29309;42.682;23.372;2023-03-08T11:53:59;94481.34;;;17.67;36.09
43711;BME280;29309;42.682;23.372;2023-03-08T11:56:46;94476.81;;;18.06;36.85
43711;BME280;29309;42.682;23.372;2023-03-08T12:01:57;94477.09;;;18.37;33.19
43711;BME280;29309;42.682;23.372;2023-03-08T12:04:34;94469.25;;;18.21;33.21
43711;BME280;29309;42.682;23.372;2023-03-08T12:07:04;94454.44;;;18.16;34.25
43711;BME280;29309;42.682;23.372;2023-03-08T12:12:09;94446.72;;;19.15;31.62
43711;BME280;29309;42.682;23.372;2023-03-08T12:14:58;94447.03;;;20.00;31.35
43711;BME280;29309;42.682;23.372;2023-03-08T12:17:31;94454.81;;;20.04;30.07
43711;BME280;29309;42.682;23.372;2023-03-08T12:19:58;94455.56;;;20.59;30.10
43711;BME280;29309;42.682;23.372;2023-03-08T12:22:36;94449.88;;;21.01;29.37
43711;BME280;29309;42.682;23.372;2023-03-08T12:30:16;94452.03;;;20.34;28.42
43711;BME280;29309;42.682;23.372;2023-03-08T12:32:44;94442.81;;;19.97;28.35
43711;BME280;29309;42.682;23.372;2023-03-08T12:43:05;94448.31;;;17.64;31.77
43711;BME280;29309;42.682;23.372;2023-03-08T12:45:31;94442.88;;;17.22;32.79
43711;BME280;29309;42.682;23.372;2023-03-08T12:50:39;94436.50;;;16.63;33.30
43711;BME280;29309;42.682;23.372;2023-03-08T12:53:21;94439.72;;;16.46;33.25
43711;BME280;29309;42.682;23.372;2023-03-08T12:55:57;94434.72;;;16.40;33.94
43711;BME280;29309;42.682;23.372;2023-03-08T12:58:24;94436.66;;;16.28;33.73
43711;BME280;29309;42.682;23.372;2023-03-08T13:00:56;94432.91;;;16.13;33.50
43711;BME280;29309;42.682;23.372;2023-03-08T13:05:47;94419.91;;;15.90;34.54
43711;BME280;29309;42.682;23.372;2023-03-08T13:13:29;94416.41;;;15.89;34.82
43711;BME280;29309;42.682;23.372;2023-03-08T13:16:03;94418.56;;;15.93;34.81
43711;BME280;29309;42.682;23.372;2023-03-08T13:18:29;94415.09;;;15.94;34.71
43711;BME280;29309;42.682;23.372;2023-03-08T13:20:58;94403.13;;;15.92;34.35
43711;BME280;29309;42.682;23.372;2023-03-08T13:23:37;94411.44;;;15.86;34.87
43711;BME280;29309;42.682;23.372;2023-03-08T13:26:17;94407.97;;;15.87;34.46
43711;BME280;29309;42.682;23.372;2023-03-08T13:28:45;94398.13;;;15.84;34.85
43711;BME280;29309;42.682;23.372;2023-03-08T13:31:12;94403.75;;;15.86;34.83
43711;BME280;29309;42.682;23.372;2023-03-08T13:33:43;94409.97;;;15.81;35.17
43711;BME280;29309;42.682;23.372;2023-03-08T13:36:17;94402.94;;;15.80;35.23
43711;BME280;29309;42.682;23.372;2023-03-08T13:38:43;94402.94;;;15.80;38.15
43711;BME280;29309;42.682;23.372;2023-03-08T13:41:08;94405.19;;;15.89;38.19
43711;BME280;29309;42.682;23.372;2023-03-08T13:43:34;94408.72;;;15.92;37.80
43711;BME280;29309;42.682;23.372;2023-03-08T13:46:03;94410.91;;;15.95;38.46
43711;BME280;29309;42.682;23.372;2023-03-08T13:48:33;94408.09;;;15.95;36.55
43711;BME280;29309;42.682;23.372;2023-03-08T13:50:59;94402.56;;;15.99;38.11
43711;BME280;29309;42.682;23.372;2023-03-08T13:53:30;94412.38;;;16.00;35.71
43711;BME280;29309;42.682;23.372;2023-03-08T13:55:56;94404.69;;;15.99;34.44
43711;BME280;29309;42.682;23.372;2023-03-08T13:58:35;94396.84;;;15.91;34.70
43711;BME280;29309;42.682;23.372;2023-03-08T14:03:36;94395.34;;;15.86;34.61
43711;BME280;29309;42.682;23.372;2023-03-08T14:06:02;94394.63;;;15.84;34.79
43711;BME280;29309;42.682;23.372;2023-03-08T14:08:28;94391.06;;;15.81;34.92
43711;BME280;29309;42.682;23.372;2023-03-08T14:11:01;94392.47;;;15.80;34.50
43711;BME280;29309;42.682;23.372;2023-03-08T14:13:28;94400.88;;;15.82;34.72
43711;BME280;29309;42.682;23.372;2023-03-08T14:15:56;94398.88;;;15.87;34.94
43711;BME280;29309;42.682;23.372;2023-03-08T14:18:23;94396.84;;;15.91;34.91
43711;BME280;29309;42.682;23.372;2023-03-08T14:23:48;94398.47;;;16.04;34.54